sensor_id;sensor_type;location;lat;lon;timestamp;pressure;altitude;pressure_sealevel;temperature;humidity
12624;BME280;6377;42.836;23.998;2023-04-10T00:03:14;95696.41;;;6.18;100.00
12624;BME280;6377;42.836;23.998;2023-04-10T00:05:42;95882.03;;;7.59;100.00
12624;BME280;6377;42.836;23.998;2023-04-10T00:08:10;95738.34;;;6.63;100.00
12624;BME280;6377;42.836;23.998;2023-04-10T00:10:40;95723.63;;;6.35;100.00
12624;BME280;6377;42.836;23.998;2023-04-10T00:13:07;95827.69;;;7.24;100.00
12624;BME280;6377;42.836;23.998;2023-04-10T00:15:35;95743.94;;;6.68;100.00
12624;BME280;6377;42.836;23.998;2023-04-10T00:18:02;95718.25;;;6.80;100.00
12624;BME280;6377;42.836;23.998;2023-04-10T00:20:31;95847.84;;;7.67;100.00
12624;BME280;6377;42.836;23.998;2023-04-10T00:22:59;95881.66;;;7.79;100.00
12624;BME280;6377;42.836;23.998;2023-04-10T00:25:26;95799.63;;;7.32;100.00
12624;BME280;6377;42.836;23.998;2023-04-10T00:27:55;95804.66;;;7.52;100.00
12624;BME280;6377;42.836;23.998;2023-04-10T00:30:23;95810.63;;;7.62;100.00
12624;BME280;6377;42.836;23.998;2023-04-10T00:32:51;95850.78;;;7.89;100.00
12624;BME280;6377;42.836;23.998;2023-04-10T00:35:18;95759.00;;;7.01;100.00
12624;BME280;6377;42.836;23.998;2023-04-10T00:37:47;95641.59;;;6.41;100.00
12624;BME280;6377;42.836;23.998;2023-04-10T00:40:15;95627.63;;;6.40;100.00
12624;BME280;6377;42.836;23.998;2023-04-10T00:42:42;95681.22;;;6.73;100.00
12624;BME280;6377;42.836;23.998;2023-04-10T00:45:10;95706.28;;;6.85;100.00
12624;BME280;6377;42.836;23.998;2023-04-10T00:47:37;95675.28;;;6.63;100.00
12624;BME280;6377;42.836;23.998;2023-04-10T00:50:08;95636.81;;;6.36;100.00
12624;BME280;6377;42.836;23.998;2023-04-10T00:52:35;95697.38;;;6.78;100.00
12624;BME280;6377;42.836;23.998;2023-04-10T00:55:05;95697.53;;;6.76;100.00
12624;BME280;6377;42.836;23.998;2023-04-10T00:57:33;95680.34;;;6.64;100.00
12624;BME280;6377;42.836;23.998;2023-04-10T01:00:05;95640.75;;;6.40;100.00
12624;BME280;6377;42.836;23.998;2023-04-10T01:02:32;95644.09;;;6.68;100.00
12624;BME280;6377;42.836;23.998;2023-04-10T01:05:00;95626.13;;;6.63;100.00
12624;BME280;6377;42.836;23.998;2023-04-10T01:07:53;95637.16;;;6.67;100.00
12624;BME280;6377;42.836;23.998;2023-04-10T01:10:28;95642.38;;;6.59;100.00
12624;BME280;6377;42.836;23.998;2023-04-10T01:13:05;95657.41;;;6.49;100.00
12624;BME280;6377;42.836;23.998;2023-04-10T01:15:41;95836.47;;;7.66;100.00
12624;BME280;6377;42.836;23.998;2023-04-10T01:18:23;95668.09;;;6.47;100.00
12624;BME280;6377;42.836;23.998;2023-04-10T01:20:53;95613.00;;;5.94;100.00
12624;BME280;6377;42.836;23.998;2023-04-10T01:26:44;95819.63;;;7.25;100.00
12624;BME280;6377;42.836;23.998;2023-04-10T01:29:19;95607.13;;;5.83;100.00
12624;BME280;6377;42.836;23.998;2023-04-10T01:31:52;95621.41;;;5.98;100.00
12624;BME280;6377;42.836;23.998;2023-04-10T01:34:23;95680.34;;;6.39;100.00
12624;BME280;6377;42.836;23.998;2023-04-10T01:44:53;95627.56;;;5.89;100.00
12624;BME280;6377;42.836;23.998;2023-04-10T01:49:52;95668.06;;;6.22;100.00
12624;BME280;6377;42.836;23.998;2023-04-10T01:57:36;95707.88;;;6.17;100.00
12624;BME280;6377;42.836;23.998;2023-04-10T02:00:07;95670.22;;;5.91;100.00
12624;BME280;6377;42.836;23.998;2023-04-10T02:02:34;95612.75;;;5.52;100.00
12624;BME280;6377;42.836;23.998;2023-04-10T02:05:02;95810.47;;;6.86;100.00
12624;BME280;6377;42.836;23.998;2023-04-10T02:07:35;95789.53;;;6.76;100.00
12624;BME280;6377;42.836;23.998;2023-04-10T02:10:14;95604.69;;;5.63;100.00
12624;BME280;6377;42.836;23.998;2023-04-10T02:12:47;95579.78;;;5.50;100.00
12624;BME280;6377;42.836;23.998;2023-04-10T02:15:21;95663.78;;;6.20;100.00
12624;BME280;6377;42.836;23.998;2023-04-10T02:17:51;95796.88;;;7.16;100.00
12624;BME280;6377;42.836;23.998;2023-04-10T02:20:19;95613.97;;;5.93;100.00
12624;BME280;6377;42.836;23.998;2023-04-10T02:22:48;95637.50;;;6.20;100.00
12624;BME280;6377;42.836;23.998;2023-04-10T02:25:16;95743.09;;;7.11;100.00
12624;BME280;6377;42.836;23.998;2023-04-10T02:27:44;95766.56;;;7.30;100.00
12624;BME280;6377;42.836;23.998;2023-04-10T02:30:11;95611.94;;;6.48;100.00
12624;BME280;6377;42.836;23.998;2023-04-10T02:32:40;95734.00;;;7.31;100.00
12624;BME280;6377;42.836;23.998;2023-04-10T02:35:08;95634.84;;;6.64;100.00
12624;BME280;6377;42.836;23.998;2023-04-10T02:37:35;95748.59;;;7.51;100.00
12624;BME280;6377;42.836;23.998;2023-04-10T02:40:03;95730.81;;;7.53;100.00
12624;BME280;6377;42.836;23.998;2023-04-10T02:42:30;95739.88;;;7.59;100.00
12624;BME280;6377;42.836;23.998;2023-04-10T02:44:57;95784.13;;;7.89;100.00
12624;BME280;6377;42.836;23.998;2023-04-10T02:47:24;95698.59;;;7.17;100.00
12624;BME280;6377;42.836;23.998;2023-04-10T02:49:53;95747.06;;;7.49;100.00
12624;BME280;6377;42.836;23.998;2023-04-10T02:52:21;95734.00;;;7.31;100.00
12624;BME280;6377;42.836;23.998;2023-04-10T02:54:49;95625.31;;;6.37;100.00
12624;BME280;6377;42.836;23.998;2023-04-10T02:57:16;95746.66;;;7.27;100.00
12624;BME280;6377;42.836;23.998;2023-04-10T02:59:43;95570.00;;;6.13;100.00
12624;BME280;6377;42.836;23.998;2023-04-10T03:02:11;95609.09;;;6.16;100.00
12624;BME280;6377;42.836;23.998;2023-04-10T03:04:38;95740.34;;;7.20;100.00
12624;BME280;6377;42.836;23.998;2023-04-10T03:07:10;95669.19;;;6.62;100.00
12624;BME280;6377;42.836;23.998;2023-04-10T03:09:41;95661.25;;;6.80;100.00
12624;BME280;6377;42.836;23.998;2023-04-10T03:12:09;95601.38;;;6.40;100.00
12624;BME280;6377;42.836;23.998;2023-04-10T03:14:37;95636.19;;;6.68;100.00
12624;BME280;6377;42.836;23.998;2023-04-10T03:17:07;95703.88;;;7.25;100.00
12624;BME280;6377;42.836;23.998;2023-04-10T03:19:34;95747.78;;;7.59;100.00
12624;BME280;6377;42.836;23.998;2023-04-10T03:22:01;95759.34;;;7.66;100.00
12624;BME280;6377;42.836;23.998;2023-04-10T03:24:30;95801.09;;;7.95;100.00
12624;BME280;6377;42.836;23.998;2023-04-10T03:26:57;95731.47;;;7.55;100.00
12624;BME280;6377;42.836;23.998;2023-04-10T03:29:24;95799.44;;;8.02;100.00
12624;BME280;6377;42.836;23.998;2023-04-10T03:31:51;95794.38;;;8.08;100.00
12624;BME280;6377;42.836;23.998;2023-04-10T03:34:18;95799.44;;;7.94;100.00
12624;BME280;6377;42.836;23.998;2023-04-10T03:36:45;95769.50;;;7.61;100.00
12624;BME280;6377;42.836;23.998;2023-04-10T03:39:13;95773.47;;;7.65;100.00
12624;BME280;6377;42.836;23.998;2023-04-10T03:41:41;95796.69;;;7.69;100.00
12624;BME280;6377;42.836;23.998;2023-04-10T03:44:08;95762.22;;;7.55;100.00
12624;BME280;6377;42.836;23.998;2023-04-10T03:46:35;95796.56;;;7.79;100.00
12624;BME280;6377;42.836;23.998;2023-04-10T03:49:02;95750.22;;;7.52;100.00
12624;BME280;6377;42.836;23.998;2023-04-10T03:51:29;95796.75;;;7.77;100.00
12624;BME280;6377;42.836;23.998;2023-04-10T03:53:57;95799.06;;;7.80;100.00
12624;BME280;6377;42.836;23.998;2023-04-10T03:56:24;95808.06;;;7.78;100.00
12624;BME280;6377;42.836;23.998;2023-04-10T03:58:53;95812.22;;;7.80;100.00
12624;BME280;6377;42.836;23.998;2023-04-10T04:01:20;95809.28;;;7.83;100.00
12624;BME280;6377;42.836;23.998;2023-04-10T04:03:47;95807.13;;;7.87;100.00
12624;BME280;6377;42.836;23.998;2023-04-10T04:06:14;95805.50;;;7.86;100.00
12624;BME280;6377;42.836;23.998;2023-04-10T04:08:45;95812.94;;;7.99;100.00
12624;BME280;6377;42.836;23.998;2023-04-10T04:11:12;95800.56;;;7.91;100.00
12624;BME280;6377;42.836;23.998;2023-04-10T04:13:39;95812.06;;;7.90;100.00
12624;BME280;6377;42.836;23.998;2023-04-10T04:16:09;95816.16;;;7.84;100.00
12624;BME280;6377;42.836;23.998;2023-04-10T04:18:48;95827.06;;;7.89;100.00
12624;BME280;6377;42.836;23.998;2023-04-10T04:21:16;95659.38;;;6.72;100.00
12624;BME280;6377;42.836;23.998;2023-04-10T04:23:46;95804.47;;;7.79;100.00
12624;BME280;6377;42.836;23.998;2023-04-10T04:26:13;95660.63;;;6.86;100.00
12624;BME280;6377;42.836;23.998;2023-04-10T04:28:41;95674.13;;;6.91;100.00
12624;BME280;6377;42.836;23.998;2023-04-10T04:31:09;95816.06;;;8.02;100.00
12624;BME280;6377;42.836;23.998;2023-04-10T04:33:37;95677.78;;;6.98;100.00
12624;BME280;6377;42.836;23.998;2023-04-10T04:36:04;95655.06;;;6.89;100.00
12624;BME280;6377;42.836;23.998;2023-04-10T04:38:32;95587.50;;;6.56;100.00
12624;BME280;6377;42.836;23.998;2023-04-10T04:40:59;95633.16;;;6.81;100.00
12624;BME280;6377;42.836;23.998;2023-04-10T04:43:27;95706.78;;;7.14;100.00
12624;BME280;6377;42.836;23.998;2023-04-10T04:45:54;95766.25;;;7.67;100.00
12624;BME280;6377;42.836;23.998;2023-04-10T04:48:24;95808.47;;;7.91;100.00
12624;BME280;6377;42.836;23.998;2023-04-10T04:50:51;95826.06;;;7.90;100.00
12624;BME280;6377;42.836;23.998;2023-04-10T04:53:19;95662.47;;;6.94;100.00
12624;BME280;6377;42.836;23.998;2023-04-10T04:55:46;95773.31;;;7.66;100.00
12624;BME280;6377;42.836;23.998;2023-04-10T04:58:13;95744.88;;;7.36;100.00
12624;BME280;6377;42.836;23.998;2023-04-10T05:00:41;95693.03;;;6.95;100.00
12624;BME280;6377;42.836;23.998;2023-04-10T05:03:08;95830.63;;;8.14;100.00
12624;BME280;6377;42.836;23.998;2023-04-10T05:05:37;95833.25;;;8.14;100.00
12624;BME280;6377;42.836;23.998;2023-04-10T05:08:04;95789.22;;;7.90;100.00
12624;BME280;6377;42.836;23.998;2023-04-10T05:10:31;95823.38;;;8.16;100.00
12624;BME280;6377;42.836;23.998;2023-04-10T05:12:58;95849.31;;;8.29;100.00
12624;BME280;6377;42.836;23.998;2023-04-10T05:15:28;95644.09;;;7.02;100.00
12624;BME280;6377;42.836;23.998;2023-04-10T05:17:56;95807.84;;;8.05;100.00
12624;BME280;6377;42.836;23.998;2023-04-10T05:20:23;95761.25;;;7.89;100.00
12624;BME280;6377;42.836;23.998;2023-04-10T05:22:52;95805.94;;;8.15;100.00
12624;BME280;6377;42.836;23.998;2023-04-10T05:25:19;95827.06;;;8.31;100.00
12624;BME280;6377;42.836;23.998;2023-04-10T05:27:46;95836.09;;;8.21;100.00
12624;BME280;6377;42.836;23.998;2023-04-10T05:30:13;95649.63;;;6.91;100.00
12624;BME280;6377;42.836;23.998;2023-04-10T05:32:41;95783.91;;;7.82;100.00
12624;BME280;6377;42.836;23.998;2023-04-10T05:35:08;95837.88;;;8.20;100.00
12624;BME280;6377;42.836;23.998;2023-04-10T05:37:35;95809.00;;;7.95;100.00
12624;BME280;6377;42.836;23.998;2023-04-10T05:40:05;95798.78;;;8.00;100.00
12624;BME280;6377;42.836;23.998;2023-04-10T05:42:33;95810.66;;;8.04;100.00
12624;BME280;6377;42.836;23.998;2023-04-10T05:45:00;95807.22;;;8.03;100.00
12624;BME280;6377;42.836;23.998;2023-04-10T05:47:27;95812.28;;;8.05;100.00
12624;BME280;6377;42.836;23.998;2023-04-10T05:49:55;95829.97;;;8.12;100.00
12624;BME280;6377;42.836;23.998;2023-04-10T05:52:31;95674.34;;;7.06;100.00
12624;BME280;6377;42.836;23.998;2023-04-10T05:55:12;95652.81;;;7.02;100.00
12624;BME280;6377;42.836;23.998;2023-04-10T05:57:39;95755.38;;;7.70;100.00
12624;BME280;6377;42.836;23.998;2023-04-10T06:00:07;95646.25;;;7.06;100.00
12624;BME280;6377;42.836;23.998;2023-04-10T06:02:35;95746.50;;;7.63;100.00
12624;BME280;6377;42.836;23.998;2023-04-10T06:05:04;95803.41;;;7.98;100.00
12624;BME280;6377;42.836;23.998;2023-04-10T06:07:31;95797.44;;;7.96;100.00
12624;BME280;6377;42.836;23.998;2023-04-10T06:09:59;95807.03;;;8.05;100.00
12624;BME280;6377;42.836;23.998;2023-04-10T06:12:27;95823.00;;;8.03;100.00
12624;BME280;6377;42.836;23.998;2023-04-10T06:14:55;95800.88;;;7.88;100.00
12624;BME280;6377;42.836;23.998;2023-04-10T06:17:22;95857.59;;;8.08;100.00
12624;BME280;6377;42.836;23.998;2023-04-10T06:19:50;95802.66;;;7.79;100.00
12624;BME280;6377;42.836;23.998;2023-04-10T06:22:18;95838.97;;;8.02;100.00
12624;BME280;6377;42.836;23.998;2023-04-10T06:24:46;95821.31;;;7.94;100.00
12624;BME280;6377;42.836;23.998;2023-04-10T06:27:13;95796.78;;;7.94;100.00
12624;BME280;6377;42.836;23.998;2023-04-10T06:29:42;95785.31;;;8.03;100.00
12624;BME280;6377;42.836;23.998;2023-04-10T06:32:10;95780.88;;;8.11;100.00
12624;BME280;6377;42.836;23.998;2023-04-10T06:34:39;95803.31;;;8.23;100.00
12624;BME280;6377;42.836;23.998;2023-04-10T06:37:06;95799.94;;;8.47;100.00
12624;BME280;6377;42.836;23.998;2023-04-10T06:39:34;95772.44;;;8.41;100.00
12624;BME280;6377;42.836;23.998;2023-04-10T06:42:01;95747.38;;;8.37;100.00
12624;BME280;6377;42.836;23.998;2023-04-10T06:44:29;95838.41;;;9.06;100.00
12624;BME280;6377;42.836;23.998;2023-04-10T06:46:58;95808.88;;;9.02;100.00
12624;BME280;6377;42.836;23.998;2023-04-10T06:49:25;95682.13;;;8.07;100.00
12624;BME280;6377;42.836;23.998;2023-04-10T06:51:52;95808.06;;;8.94;100.00
12624;BME280;6377;42.836;23.998;2023-04-10T06:54:20;95824.53;;;8.96;100.00
12624;BME280;6377;42.836;23.998;2023-04-10T06:56:48;95662.00;;;8.22;100.00
12624;BME280;6377;42.836;23.998;2023-04-10T06:59:15;95825.69;;;9.26;100.00
12624;BME280;6377;42.836;23.998;2023-04-10T07:01:43;95703.06;;;8.41;100.00
12624;BME280;6377;42.836;23.998;2023-04-10T07:04:14;95753.84;;;8.83;100.00
12624;BME280;6377;42.836;23.998;2023-04-10T07:06:42;95860.63;;;9.68;100.00
12624;BME280;6377;42.836;23.998;2023-04-10T07:09:09;95708.03;;;8.68;100.00
12624;BME280;6377;42.836;23.998;2023-04-10T07:11:37;95866.25;;;9.49;100.00
12624;BME280;6377;42.836;23.998;2023-04-10T07:14:04;95809.84;;;9.26;100.00
12624;BME280;6377;42.836;23.998;2023-04-10T07:16:31;95828.78;;;9.45;100.00
12624;BME280;6377;42.836;23.998;2023-04-10T07:18:58;95815.31;;;9.24;100.00
12624;BME280;6377;42.836;23.998;2023-04-10T07:21:27;95861.28;;;9.46;100.00
12624;BME280;6377;42.836;23.998;2023-04-10T07:23:54;95803.59;;;9.11;100.00
12624;BME280;6377;42.836;23.998;2023-04-10T07:26:21;95817.78;;;9.26;100.00
12624;BME280;6377;42.836;23.998;2023-04-10T07:28:51;95823.88;;;9.18;100.00
12624;BME280;6377;42.836;23.998;2023-04-10T07:31:18;95862.13;;;9.46;100.00
12624;BME280;6377;42.836;23.998;2023-04-10T07:33:46;95862.31;;;9.45;100.00
12624;BME280;6377;42.836;23.998;2023-04-10T07:36:13;95859.00;;;9.43;100.00
12624;BME280;6377;42.836;23.998;2023-04-10T07:38:41;95814.63;;;9.22;100.00
12624;BME280;6377;42.836;23.998;2023-04-10T07:41:09;95810.84;;;9.33;100.00
12624;BME280;6377;42.836;23.998;2023-04-10T07:43:36;95826.63;;;9.49;100.00
12624;BME280;6377;42.836;23.998;2023-04-10T07:46:04;95847.91;;;9.64;100.00
12624;BME280;6377;42.836;23.998;2023-04-10T07:48:31;95851.03;;;9.67;100.00
12624;BME280;6377;42.836;23.998;2023-04-10T07:50:58;95853.53;;;9.61;100.00
12624;BME280;6377;42.836;23.998;2023-04-10T07:53:25;95855.34;;;9.68;100.00
12624;BME280;6377;42.836;23.998;2023-04-10T07:55:54;95833.22;;;9.61;100.00
12624;BME280;6377;42.836;23.998;2023-04-10T07:58:21;95847.81;;;9.96;100.00
12624;BME280;6377;42.836;23.998;2023-04-10T08:00:48;95862.03;;;9.95;100.00
12624;BME280;6377;42.836;23.998;2023-04-10T08:03:15;95852.91;;;10.13;100.00
12624;BME280;6377;42.836;23.998;2023-04-10T08:05:42;95730.09;;;9.63;100.00
12624;BME280;6377;42.836;23.998;2023-04-10T08:08:09;95700.50;;;9.67;100.00
12624;BME280;6377;42.836;23.998;2023-04-10T08:10:37;95795.88;;;10.27;100.00
12624;BME280;6377;42.836;23.998;2023-04-10T08:13:05;95842.22;;;10.68;100.00
12624;BME280;6377;42.836;23.998;2023-04-10T08:15:33;95841.41;;;10.68;100.00
12624;BME280;6377;42.836;23.998;2023-04-10T08:18:00;95845.53;;;10.71;100.00
12624;BME280;6377;42.836;23.998;2023-04-10T08:20:27;95848.19;;;10.71;100.00
12624;BME280;6377;42.836;23.998;2023-04-10T08:22:54;95846.72;;;10.68;100.00
12624;BME280;6377;42.836;23.998;2023-04-10T08:25:21;95851.31;;;10.74;100.00
12624;BME280;6377;42.836;23.998;2023-04-10T08:27:49;95842.59;;;10.65;100.00
12624;BME280;6377;42.836;23.998;2023-04-10T08:30:17;95846.56;;;10.61;100.00
12624;BME280;6377;42.836;23.998;2023-04-10T08:32:45;95847.19;;;10.41;100.00
12624;BME280;6377;42.836;23.998;2023-04-10T08:35:12;95850.38;;;10.28;100.00
12624;BME280;6377;42.836;23.998;2023-04-10T08:37:39;95843.13;;;10.22;100.00
12624;BME280;6377;42.836;23.998;2023-04-10T08:40:07;95859.84;;;10.15;100.00
12624;BME280;6377;42.836;23.998;2023-04-10T08:42:35;95833.59;;;10.05;100.00
12624;BME280;6377;42.836;23.998;2023-04-10T08:45:03;95844.09;;;10.29;100.00
12624;BME280;6377;42.836;23.998;2023-04-10T08:47:35;95820.66;;;10.26;100.00
12624;BME280;6377;42.836;23.998;2023-04-10T08:50:05;95836.97;;;10.60;100.00
12624;BME280;6377;42.836;23.998;2023-04-10T08:52:37;95649.28;;;9.45;100.00
12624;BME280;6377;42.836;23.998;2023-04-10T08:55:11;95806.97;;;10.53;100.00
12624;BME280;6377;42.836;23.998;2023-04-10T08:57:39;95651.75;;;9.78;100.00
12624;BME280;6377;42.836;23.998;2023-04-10T09:00:08;95781.16;;;10.78;100.00
12624;BME280;6377;42.836;23.998;2023-04-10T09:02:39;95817.31;;;11.08;100.00
12624;BME280;6377;42.836;23.998;2023-04-10T09:05:10;95760.63;;;10.57;100.00
12624;BME280;6377;42.836;23.998;2023-04-10T09:07:37;95788.25;;;10.55;100.00
12624;BME280;6377;42.836;23.998;2023-04-10T09:10:06;95815.59;;;10.93;100.00
12624;BME280;6377;42.836;23.998;2023-04-10T09:12:42;95710.97;;;10.22;100.00
12624;BME280;6377;42.836;23.998;2023-04-10T09:15:11;95806.44;;;10.81;100.00
12624;BME280;6377;42.836;23.998;2023-04-10T09:17:53;95754.22;;;10.75;100.00
12624;BME280;6377;42.836;23.998;2023-04-10T09:20:23;95800.88;;;11.13;100.00
12624;BME280;6377;42.836;23.998;2023-04-10T09:22:52;95774.69;;;11.03;100.00
12624;BME280;6377;42.836;23.998;2023-04-10T09:25:33;95798.94;;;11.30;100.00
12624;BME280;6377;42.836;23.998;2023-04-10T09:28:01;95762.22;;;11.27;100.00
12624;BME280;6377;42.836;23.998;2023-04-10T09:30:34;95798.78;;;11.60;100.00
12624;BME280;6377;42.836;23.998;2023-04-10T09:33:20;95811.19;;;11.60;100.00
12624;BME280;6377;42.836;23.998;2023-04-10T09:35:48;95796.75;;;11.48;100.00
12624;BME280;6377;42.836;23.998;2023-04-10T09:38:15;95791.00;;;11.44;100.00
12624;BME280;6377;42.836;23.998;2023-04-10T09:40:43;95770.44;;;11.32;100.00
12624;BME280;6377;42.836;23.998;2023-04-10T09:43:22;95796.38;;;11.51;100.00
12624;BME280;6377;42.836;23.998;2023-04-10T09:45:50;95786.09;;;11.56;100.00
12624;BME280;6377;42.836;23.998;2023-04-10T09:48:20;95779.59;;;11.58;100.00
12624;BME280;6377;42.836;23.998;2023-04-10T09:50:47;95758.50;;;11.36;100.00
12624;BME280;6377;42.836;23.998;2023-04-10T09:53:16;95788.47;;;11.65;100.00
12624;BME280;6377;42.836;23.998;2023-04-10T09:55:44;95723.13;;;11.14;100.00
12624;BME280;6377;42.836;23.998;2023-04-10T09:58:12;95698.34;;;10.92;100.00
12624;BME280;6377;42.836;23.998;2023-04-10T10:00:41;95777.84;;;11.36;100.00
12624;BME280;6377;42.836;23.998;2023-04-10T10:03:10;95729.22;;;11.00;100.00
12624;BME280;6377;42.836;23.998;2023-04-10T10:05:40;95768.97;;;11.29;100.00
12624;BME280;6377;42.836;23.998;2023-04-10T10:08:09;95697.06;;;10.88;100.00
12624;BME280;6377;42.836;23.998;2023-04-10T10:10:39;95760.41;;;11.42;100.00
12624;BME280;6377;42.836;23.998;2023-04-10T10:13:14;95710.25;;;11.11;100.00
12624;BME280;6377;42.836;23.998;2023-04-10T10:15:47;95714.00;;;11.16;100.00
12624;BME280;6377;42.836;23.998;2023-04-10T10:18:21;95685.50;;;11.04;100.00
12624;BME280;6377;42.836;23.998;2023-04-10T10:20:53;95719.56;;;11.21;100.00
12624;BME280;6377;42.836;23.998;2023-04-10T10:23:20;95749.25;;;11.32;100.00
12624;BME280;6377;42.836;23.998;2023-04-10T10:25:49;95651.09;;;10.52;100.00
12624;BME280;6377;42.836;23.998;2023-04-10T10:28:19;95737.50;;;10.97;100.00
12624;BME280;6377;42.836;23.998;2023-04-10T10:30:47;95706.91;;;10.57;100.00
12624;BME280;6377;42.836;23.998;2023-04-10T10:33:14;95745.81;;;10.48;100.00
12624;BME280;6377;42.836;23.998;2023-04-10T10:35:42;95730.78;;;9.87;100.00
12624;BME280;6377;42.836;23.998;2023-04-10T10:38:11;95734.47;;;9.23;100.00
12624;BME280;6377;42.836;23.998;2023-04-10T10:40:50;95801.47;;;8.82;100.00
12624;BME280;6377;42.836;23.998;2023-04-10T10:43:26;95726.84;;;7.99;100.00
12624;BME280;6377;42.836;23.998;2023-04-10T10:45:59;95799.09;;;8.38;100.00
12624;BME280;6377;42.836;23.998;2023-04-10T10:48:28;95737.88;;;7.95;100.00
12624;BME280;6377;42.836;23.998;2023-04-10T10:50:56;95791.06;;;8.48;100.00
12624;BME280;6377;42.836;23.998;2023-04-10T10:53:36;95750.00;;;8.37;100.00
12624;BME280;6377;42.836;23.998;2023-04-10T10:56:32;95792.38;;;8.92;100.00
12624;BME280;6377;42.836;23.998;2023-04-10T10:59:00;95783.47;;;9.18;100.00
12624;BME280;6377;42.836;23.998;2023-04-10T11:01:28;95732.38;;;9.02;100.00
12624;BME280;6377;42.836;23.998;2023-04-10T11:03:55;95734.28;;;9.25;100.00
12624;BME280;6377;42.836;23.998;2023-04-10T11:06:48;95618.69;;;8.73;100.00
12624;BME280;6377;42.836;23.998;2023-04-10T11:09:48;95766.94;;;9.87;100.00
12624;BME280;6377;42.836;23.998;2023-04-10T11:12:18;95762.16;;;9.90;100.00
12624;BME280;6377;42.836;23.998;2023-04-10T11:14:57;95688.47;;;9.65;100.00
12624;BME280;6377;42.836;23.998;2023-04-10T11:17:46;95757.06;;;10.20;100.00
12624;BME280;6377;42.836;23.998;2023-04-10T11:20:14;95746.69;;;10.18;100.00
12624;BME280;6377;42.836;23.998;2023-04-10T11:23:08;95755.28;;;10.12;100.00
12624;BME280;6377;42.836;23.998;2023-04-10T11:25:48;95707.09;;;9.71;100.00
12624;BME280;6377;42.836;23.998;2023-04-10T11:28:35;95757.59;;;10.15;100.00
12624;BME280;6377;42.836;23.998;2023-04-10T11:31:16;95737.88;;;10.48;100.00
12624;BME280;6377;42.836;23.998;2023-04-10T11:33:44;95733.41;;;10.94;100.00
12624;BME280;6377;42.836;23.998;2023-04-10T11:36:13;95729.25;;;11.29;100.00
12624;BME280;6377;42.836;23.998;2023-04-10T11:38:53;95764.34;;;11.60;100.00
12624;BME280;6377;42.836;23.998;2023-04-10T11:41:25;95751.00;;;11.39;100.00
12624;BME280;6377;42.836;23.998;2023-04-10T11:43:53;95753.47;;;11.41;100.00
12624;BME280;6377;42.836;23.998;2023-04-10T11:46:21;95746.06;;;11.36;100.00
12624;BME280;6377;42.836;23.998;2023-04-10T11:48:51;95751.66;;;11.41;100.00
12624;BME280;6377;42.836;23.998;2023-04-10T11:51:19;95683.41;;;10.99;100.00
12624;BME280;6377;42.836;23.998;2023-04-10T11:53:46;95640.66;;;10.73;100.00
12624;BME280;6377;42.836;23.998;2023-04-10T11:56:17;95750.00;;;11.40;100.00
12624;BME280;6377;42.836;23.998;2023-04-10T11:58:49;95736.22;;;11.45;100.00
12624;BME280;6377;42.836;23.998;2023-04-10T12:01:20;95749.72;;;11.35;100.00
12624;BME280;6377;42.836;23.998;2023-04-10T12:03:48;95751.88;;;11.17;100.00
12624;BME280;6377;42.836;23.998;2023-04-10T12:06:16;95740.25;;;10.89;100.00
12624;BME280;6377;42.836;23.998;2023-04-10T12:08:45;95747.09;;;10.75;100.00
12624;BME280;6377;42.836;23.998;2023-04-10T12:11:16;95750.72;;;10.59;100.00
12624;BME280;6377;42.836;23.998;2023-04-10T12:13:45;95740.38;;;10.50;100.00
12624;BME280;6377;42.836;23.998;2023-04-10T12:16:14;95683.59;;;10.15;100.00
12624;BME280;6377;42.836;23.998;2023-04-10T12:18:41;95724.78;;;10.55;100.00
12624;BME280;6377;42.836;23.998;2023-04-10T12:21:09;95722.50;;;10.29;100.00
12624;BME280;6377;42.836;23.998;2023-04-10T12:23:37;95731.53;;;10.35;100.00
12624;BME280;6377;42.836;23.998;2023-04-10T12:26:08;95718.06;;;10.22;100.00
12624;BME280;6377;42.836;23.998;2023-04-10T12:31:03;95713.56;;;9.61;100.00
12624;BME280;6377;42.836;23.998;2023-04-10T12:33:32;95609.13;;;8.80;100.00
12624;BME280;6377;42.836;23.998;2023-04-10T12:35:59;95712.25;;;9.65;100.00
12624;BME280;6377;42.836;23.998;2023-04-10T12:38:37;95706.75;;;9.74;100.00
12624;BME280;6377;42.836;23.998;2023-04-10T12:41:05;95693.22;;;9.69;100.00
12624;BME280;6377;42.836;23.998;2023-04-10T12:43:34;95615.38;;;9.26;100.00
12624;BME280;6377;42.836;23.998;2023-04-10T12:46:02;95700.56;;;9.90;100.00
12624;BME280;6377;42.836;23.998;2023-04-10T12:48:29;95540.56;;;8.72;100.00
12624;BME280;6377;42.836;23.998;2023-04-10T12:50:58;95626.09;;;9.25;100.00
12624;BME280;6377;42.836;23.998;2023-04-10T12:53:26;95672.00;;;9.54;100.00
12624;BME280;6377;42.836;23.998;2023-04-10T12:56:00;95614.91;;;9.23;100.00
12624;BME280;6377;42.836;23.998;2023-04-10T12:58:27;95646.53;;;9.31;100.00
12624;BME280;6377;42.836;23.998;2023-04-10T13:01:01;95620.94;;;8.92;100.00
12624;BME280;6377;42.836;23.998;2023-04-10T13:03:29;95513.00;;;8.20;100.00
12624;BME280;6377;42.836;23.998;2023-04-10T13:05:57;95676.94;;;9.57;100.00
12624;BME280;6377;42.836;23.998;2023-04-10T13:08:25;95659.78;;;9.62;100.00
12624;BME280;6377;42.836;23.998;2023-04-10T13:10:52;95591.69;;;9.18;100.00
12624;BME280;6377;42.836;23.998;2023-04-10T13:13:19;95559.81;;;8.89;100.00
12624;BME280;6377;42.836;23.998;2023-04-10T13:15:46;95678.63;;;9.50;100.00
12624;BME280;6377;42.836;23.998;2023-04-10T13:18:14;95679.63;;;9.49;100.00
12624;BME280;6377;42.836;23.998;2023-04-10T13:20:41;95692.41;;;9.30;100.00
12624;BME280;6377;42.836;23.998;2023-04-10T13:23:09;95682.00;;;9.36;100.00
12624;BME280;6377;42.836;23.998;2023-04-10T13:25:38;95672.47;;;9.27;100.00
12624;BME280;6377;42.836;23.998;2023-04-10T13:28:07;95602.13;;;9.04;100.00
12624;BME280;6377;42.836;23.998;2023-04-10T13:30:36;95640.81;;;9.58;100.00
12624;BME280;6377;42.836;23.998;2023-04-10T13:33:04;95637.41;;;9.72;100.00